Time;durP1;ratioP1;P1;durP2;ratioP2;P2;SDS_P1;SDS_P2;PMS_P1;PMS_P2;Temp;Humidity;BMP_temperature;BMP_pressure;BME280_temperature;BME280_humidity;BME280_pressure;Samples;Min_cycle;Max_cycle;Signal;HPM_P1;HPM_P2
2021/08/06 00:02:00;;;;;;;2.65;1.17;;;22.00;67.50;;;;;;5038846;28;20036;-39
2021/08/06 00:04:26;;;;;;;2.20;1.42;;;22.00;67.50;;;;;;5033302;28;20063;-42
2021/08/06 00:06:51;;;;;;;1.85;1.00;;;22.00;67.70;;;;;;5015106;28;20065;-42
2021/08/06 00:09:17;;;;;;;1.23;1.13;;;21.90;68.40;;;;;;5035238;28;20040;-42
2021/08/06 00:11:42;;;;;;;1.30;1.00;;;21.90;67.60;;;;;;5034649;28;20074;-42
2021/08/06 00:14:08;;;;;;;1.48;1.13;;;22.00;67.30;;;;;;5033561;28;20123;-43
2021/08/06 00:16:33;;;;;;;2.25;1.20;;;22.00;67.10;;;;;;5033740;28;20090;-41
2021/08/06 00:18:59;;;;;;;2.65;1.02;;;22.00;67.30;;;;;;5031250;28;20026;-42
2021/08/06 00:21:24;;;;;;;2.38;1.13;;;21.90;67.40;;;;;;5017945;28;20172;-41
2021/08/06 00:23:50;;;;;;;2.03;1.20;;;21.90;67.60;;;;;;5017579;28;20058;-42
2021/08/06 00:26:16;;;;;;;2.58;1.20;;;21.90;67.60;;;;;;5033549;28;20115;-42
2021/08/06 00:28:42;;;;;;;1.42;1.27;;;21.90;67.60;;;;;;5033813;28;20427;-38
2021/08/06 00:31:07;;;;;;;1.52;1.05;;;21.90;67.70;;;;;;5017526;28;20059;-41
2021/08/06 00:33:33;;;;;;;1.60;1.20;;;21.90;67.60;;;;;;5031127;28;20107;-41
2021/08/06 00:35:59;;;;;;;0.98;0.70;;;21.90;67.50;;;;;;5036016;28;20021;-41
2021/08/06 00:38:24;;;;;;;1.88;0.93;;;21.90;67.50;;;;;;5033327;28;20088;-40
2021/08/06 00:40:50;;;;;;;2.83;1.13;;;21.90;68.20;;;;;;5033284;28;20036;-41
2021/08/06 00:43:15;;;;;;;1.70;0.98;;;21.80;67.60;;;;;;5033205;28;20073;-39
2021/08/06 00:45:41;;;;;;;1.88;1.50;;;21.80;67.50;;;;;;5012910;28;20068;-41
2021/08/06 00:48:07;;;;;;;1.83;1.38;;;21.80;67.60;;;;;;5018949;28;20037;-41
2021/08/06 00:50:33;;;;;;;1.95;1.40;;;21.80;67.50;;;;;;5018118;28;20029;-41
2021/08/06 00:52:59;;;;;;;1.88;0.85;;;21.90;67.50;;;;;;5032874;28;20048;-38
2021/08/06 00:55:24;;;;;;;2.35;1.27;;;21.80;67.40;;;;;;5002027;28;20494;-41
2021/08/06 00:57:50;;;;;;;1.65;1.10;;;21.90;67.40;;;;;;5029624;28;20396;-41
2021/08/06 01:00:15;;;;;;;1.83;1.20;;;21.80;67.50;;;;;;5035123;28;20032;-41
2021/08/06 01:02:53;;;;;;;1.10;1.00;;;21.80;67.60;;;;;;5033764;28;20030;-41
2021/08/06 01:05:19;;;;;;;1.40;1.00;;;21.80;67.50;;;;;;5032457;28;20057;-40
2021/08/06 01:08:09;;;;;;;0.93;0.85;;;21.80;67.50;;;;;;5001584;28;20388;-41
2021/08/06 01:10:41;;;;;;;1.67;1.17;;;21.80;67.50;;;;;;5033072;28;20098;-41
2021/08/06 01:13:08;;;;;;;1.85;0.93;;;21.80;67.50;;;;;;5031324;28;20037;-41
2021/08/06 01:15:34;;;;;;;1.00;0.90;;;21.80;67.50;;;;;;5030815;28;20041;-41
2021/08/06 01:18:01;;;;;;;1.10;0.70;;;21.70;67.50;;;;;;5035106;28;20030;-41
2021/08/06 01:20:38;;;;;;;0.93;0.82;;;21.70;68.20;;;;;;5018034;28;20025;-41
2021/08/06 01:23:08;;;;;;;2.05;0.82;;;21.70;67.70;;;;;;5032550;28;20021;-40
2021/08/06 01:25:43;;;;;;;1.33;1.00;;;21.70;67.50;;;;;;5017570;28;20112;-41
2021/08/06 01:28:09;;;;;;;1.50;1.02;;;21.70;67.50;;;;;;5031612;28;20025;-41
2021/08/06 01:30:34;;;;;;;1.40;1.20;;;21.70;67.40;;;;;;5012524;28;20037;-38
2021/08/06 01:33:00;;;;;;;1.40;0.93;;;21.80;67.50;;;;;;5017294;28;20503;-41
2021/08/06 01:35:25;;;;;;;1.40;1.05;;;21.70;67.40;;;;;;5032382;28;20052;-43
2021/08/06 01:37:51;;;;;;;0.93;0.75;;;21.70;67.30;;;;;;5032215;28;20056;-41
2021/08/06 01:40:17;;;;;;;2.35;0.90;;;21.70;67.40;;;;;;5032547;28;20116;-41
2021/08/06 01:42:45;;;;;;;1.30;0.93;;;21.70;67.40;;;;;;5012009;28;20022;-41
2021/08/06 01:45:13;;;;;;;1.70;0.85;;;21.70;67.50;;;;;;5025751;28;20046;-41
2021/08/06 01:47:47;;;;;;;1.38;0.77;;;21.70;67.40;;;;;;5017930;28;20044;-40
2021/08/06 01:50:15;;;;;;;0.80;0.60;;;21.70;67.30;;;;;;5032018;28;20029;-42
2021/08/06 01:52:48;;;;;;;1.25;0.80;;;21.70;67.30;;;;;;5031868;28;20412;-41
2021/08/06 01:55:13;;;;;;;0.75;0.68;;;21.70;67.30;;;;;;5032328;28;20056;-42
2021/08/06 01:57:39;;;;;;;1.38;1.00;;;21.70;67.40;;;;;;4995464;28;20037;-40
2021/08/06 02:00:06;;;;;;;1.10;0.70;;;21.70;67.50;;;;;;5035108;28;20506;-43
2021/08/06 02:02:31;;;;;;;1.02;0.57;;;21.60;67.40;;;;;;5017149;28;20043;-41
2021/08/06 02:04:57;;;;;;;0.93;0.82;;;21.70;67.50;;;;;;5000827;28;20014;-41
2021/08/06 02:07:23;;;;;;;0.95;0.75;;;21.70;67.40;;;;;;5031546;28;20041;-37
2021/08/06 02:09:48;;;;;;;0.95;0.85;;;21.70;67.50;;;;;;5028463;28;20026;-42
2021/08/06 02:12:14;;;;;;;1.75;0.93;;;21.60;67.40;;;;;;5016966;28;20087;-35
2021/08/06 02:14:41;;;;;;;1.35;0.93;;;21.70;67.50;;;;;;5032261;28;20146;-40
2021/08/06 02:17:07;;;;;;;2.45;1.20;;;21.60;67.50;;;;;;5031741;28;20021;-41
2021/08/06 02:19:32;;;;;;;2.80;1.10;;;21.60;67.40;;;;;;5000498;28;20067;-41
2021/08/06 02:21:59;;;;;;;1.25;1.05;;;21.60;67.30;;;;;;5014648;28;20053;-41
2021/08/06 02:24:25;;;;;;;1.85;0.77;;;21.60;67.20;;;;;;5032311;28;20025;-41
2021/08/06 02:26:50;;;;;;;2.00;1.02;;;21.70;67.30;;;;;;5016137;28;20443;-42
2021/08/06 02:29:18;;;;;;;1.88;0.98;;;21.60;67.20;;;;;;5000211;28;20492;-41
2021/08/06 02:31:44;;;;;;;1.70;0.88;;;21.60;67.20;;;;;;5031593;28;20495;-41
2021/08/06 02:34:10;;;;;;;1.17;0.80;;;21.60;67.20;;;;;;5016035;28;20029;-41
2021/08/06 02:36:36;;;;;;;0.80;0.77;;;21.60;68.00;;;;;;5029404;28;20523;-41
2021/08/06 02:39:01;;;;;;;1.83;0.77;;;21.60;67.10;;;;;;5034622;28;20060;-41
2021/08/06 02:41:27;;;;;;;3.03;0.90;;;21.60;67.30;;;;;;5031413;28;20084;-41
2021/08/06 02:43:53;;;;;;;1.17;1.05;;;21.60;67.40;;;;;;4999807;28;20053;-38
2021/08/06 02:46:19;;;;;;;2.22;0.95;;;21.60;67.30;;;;;;5031918;28;20371;-41
2021/08/06 02:48:44;;;;;;;1.10;0.80;;;21.60;67.30;;;;;;5027391;28;20046;-41
2021/08/06 02:51:10;;;;;;;1.40;0.98;;;21.70;67.20;;;;;;5035792;28;20029;-36
2021/08/06 02:53:36;;;;;;;1.33;1.10;;;21.60;67.20;;;;;;5031645;28;20099;-41
2021/08/06 02:56:01;;;;;;;1.02;0.90;;;21.60;67.30;;;;;;5031466;28;20026;-41
2021/08/06 02:58:27;;;;;;;1.73;0.70;;;21.60;67.20;;;;;;5016313;28;20090;-40
2021/08/06 03:00:52;;;;;;;0.98;0.80;;;21.60;67.30;;;;;;5028439;28;20026;-41
2021/08/06 03:03:18;;;;;;;0.82;0.68;;;21.60;67.30;;;;;;5033299;28;20148;-40
2021/08/06 03:05:44;;;;;;;0.93;0.63;;;21.60;67.40;;;;;;5015835;28;20419;-41
2021/08/06 03:08:09;;;;;;;2.60;1.17;;;21.60;67.30;;;;;;5016486;28;20030;-41
2021/08/06 03:10:35;;;;;;;1.33;0.80;;;21.60;68.10;;;;;;5033641;28;20096;-39
2021/08/06 03:13:01;;;;;;;2.47;1.00;;;21.60;67.20;;;;;;5032426;28;20551;-41
2021/08/06 03:15:26;;;;;;;1.50;0.75;;;21.60;67.40;;;;;;5035178;28;20120;-41
2021/08/06 03:17:52;;;;;;;1.30;1.05;;;21.50;67.30;;;;;;5032299;28;20079;-42
2021/08/06 03:20:20;;;;;;;0.95;0.90;;;21.60;67.40;;;;;;4682588;28;9999783;-42
2021/08/06 03:22:46;;;;;;;1.50;0.93;;;21.60;67.50;;;;;;5027287;28;20033;-41
2021/08/06 03:25:12;;;;;;;1.30;0.85;;;21.60;67.70;;;;;;5042079;28;20710;-42
2021/08/06 03:27:37;;;;;;;2.33;1.02;;;21.60;68.00;;;;;;5022340;28;20029;-41
2021/08/06 03:30:04;;;;;;;1.25;0.90;;;21.60;68.00;;;;;;5028479;28;20029;-42
2021/08/06 03:32:30;;;;;;;3.15;0.90;;;21.60;67.90;;;;;;5036353;28;20537;-42
2021/08/06 03:34:55;;;;;;;2.10;1.10;;;21.60;67.80;;;;;;5032127;28;20026;-42
2021/08/06 03:37:21;;;;;;;1.20;0.70;;;21.70;67.80;;;;;;5030682;28;20619;-41
2021/08/06 03:39:46;;;;;;;1.23;0.77;;;21.70;67.70;;;;;;5009485;28;20065;-42
2021/08/06 03:42:12;;;;;;;1.48;0.80;;;21.60;67.70;;;;;;5032272;28;20036;-42
2021/08/06 03:44:37;;;;;;;0.85;0.77;;;21.60;67.80;;;;;;5022658;28;20511;-41
2021/08/06 03:47:03;;;;;;;1.33;1.02;;;21.60;67.70;;;;;;5034376;28;20526;-42
2021/08/06 03:49:29;;;;;;;1.40;0.65;;;21.70;67.60;;;;;;5035560;28;20029;-41
2021/08/06 03:51:54;;;;;;;2.67;0.90;;;21.70;67.50;;;;;;5031334;28;20022;-41
2021/08/06 03:54:20;;;;;;;2.05;1.00;;;21.70;67.60;;;;;;5017992;28;20041;-41
2021/08/06 03:56:45;;;;;;;1.00;0.60;;;21.70;67.50;;;;;;5036537;28;20430;-41
2021/08/06 03:59:11;;;;;;;1.02;0.68;;;21.70;67.80;;;;;;5036200;28;20025;-41
2021/08/06 04:01:37;;;;;;;0.98;0.88;;;21.60;67.70;;;;;;5034010;28;20029;-42
2021/08/06 04:04:02;;;;;;;0.90;0.77;;;21.60;68.60;;;;;;5032462;28;20484;-41
2021/08/06 04:06:28;;;;;;;1.42;0.70;;;21.70;67.80;;;;;;5033645;28;20053;-41
2021/08/06 04:08:53;;;;;;;1.88;0.90;;;21.60;67.60;;;;;;5035759;28;20075;-42
2021/08/06 04:11:20;;;;;;;1.80;1.08;;;21.60;67.80;;;;;;5033960;28;20025;-41
2021/08/06 04:13:46;;;;;;;0.95;0.77;;;21.60;68.00;;;;;;5033747;28;20043;-42
2021/08/06 04:16:12;;;;;;;1.30;0.77;;;21.60;68.00;;;;;;5032392;28;20042;-42
2021/08/06 04:18:37;;;;;;;1.10;0.70;;;21.60;67.70;;;;;;5030887;28;20054;-41
2021/08/06 04:21:03;;;;;;;0.90;0.73;;;21.60;67.90;;;;;;5036192;28;20049;-44
2021/08/06 04:23:29;;;;;;;1.88;0.88;;;21.60;67.90;;;;;;5033455;28;20029;-41
2021/08/06 04:25:54;;;;;;;1.13;0.73;;;21.50;67.90;;;;;;5033513;28;20021;-42
2021/08/06 04:28:20;;;;;;;1.08;0.73;;;21.60;68.00;;;;;;5033518;28;20039;-41
2021/08/06 04:30:45;;;;;;;1.38;0.80;;;21.60;67.90;;;;;;5029423;28;20036;-41
2021/08/06 04:33:11;;;;;;;1.85;0.70;;;21.60;68.00;;;;;;5037720;28;20111;-41
2021/08/06 04:35:36;;;;;;;1.48;0.77;;;21.60;67.90;;;;;;5033502;28;20112;-41
2021/08/06 04:38:02;;;;;;;0.80;0.57;;;21.60;67.80;;;;;;5033244;28;20026;-41
2021/08/06 04:40:28;;;;;;;1.20;0.93;;;21.60;67.70;;;;;;5033078;28;20491;-41
2021/08/06 04:42:53;;;;;;;0.70;0.60;;;21.60;67.70;;;;;;5030175;28;20456;-41
2021/08/06 04:45:19;;;;;;;1.27;0.70;;;21.50;67.80;;;;;;5035203;28;20071;-41
2021/08/06 04:47:49;;;;;;;2.38;0.93;;;21.50;67.90;;;;;;5035545;28;20108;-43
2021/08/06 04:50:16;;;;;;;1.55;0.80;;;21.50;67.90;;;;;;5038750;28;20056;-43
2021/08/06 04:52:42;;;;;;;1.65;0.85;;;21.50;67.90;;;;;;5036915;28;20034;-43
2021/08/06 04:55:08;;;;;;;1.48;0.80;;;21.50;67.90;;;;;;5031936;28;20021;-43
2021/08/06 04:57:33;;;;;;;0.88;0.75;;;21.50;67.90;;;;;;5036471;28;20067;-43
2021/08/06 04:59:59;;;;;;;2.13;0.70;;;21.50;68.10;;;;;;5047432;28;20021;-44
2021/08/06 05:02:24;;;;;;;0.90;0.60;;;21.50;67.90;;;;;;5034814;28;20032;-44
2021/08/06 05:04:50;;;;;;;1.40;0.80;;;21.50;68.00;;;;;;5034284;28;20025;-40
2021/08/06 05:07:17;;;;;;;1.52;1.00;;;21.50;68.10;;;;;;5032714;28;20043;-42
2021/08/06 05:09:44;;;;;;;0.88;0.68;;;21.50;68.00;;;;;;5013794;28;20058;-43
2021/08/06 05:12:09;;;;;;;0.93;0.70;;;21.50;68.00;;;;;;5036552;28;20493;-44
2021/08/06 05:14:35;;;;;;;0.65;0.63;;;21.50;68.00;;;;;;5033152;28;20021;-43
2021/08/06 05:17:00;;;;;;;0.85;0.75;;;21.50;68.10;;;;;;5032531;28;20447;-43
2021/08/06 05:19:26;;;;;;;0.95;0.80;;;21.50;68.20;;;;;;5032401;28;20036;-43
2021/08/06 05:21:51;;;;;;;1.25;0.65;;;21.50;68.20;;;;;;5029434;28;20378;-41
2021/08/06 05:24:17;;;;;;;1.77;0.90;;;21.40;68.30;;;;;;5034427;28;20021;-41
2021/08/06 05:26:43;;;;;;;1.08;0.50;;;21.50;68.10;;;;;;5032779;28;20032;-41
2021/08/06 05:29:08;;;;;;;1.23;0.60;;;21.40;68.00;;;;;;5025481;28;20041;-44
2021/08/06 05:31:34;;;;;;;1.23;1.00;;;21.50;68.10;;;;;;5019337;28;20029;-42
2021/08/06 05:33:59;;;;;;;2.13;0.80;;;21.50;68.00;;;;;;5023241;28;20060;-41
2021/08/06 05:36:25;;;;;;;2.20;0.80;;;21.50;68.30;;;;;;5024294;28;20034;-40
2021/08/06 05:38:50;;;;;;;1.83;0.88;;;21.50;68.20;;;;;;5023479;28;20508;-44
2021/08/06 05:41:16;;;;;;;1.05;0.73;;;21.50;68.20;;;;;;5023075;28;20033;-42
2021/08/06 05:43:41;;;;;;;1.02;0.70;;;21.50;68.20;;;;;;5025643;28;20025;-41
2021/08/06 05:46:07;;;;;;;2.88;0.90;;;21.50;68.40;;;;;;5022465;28;20036;-43
2021/08/06 05:48:32;;;;;;;1.48;0.90;;;21.40;69.30;;;;;;5022681;28;20539;-47
2021/08/06 05:50:58;;;;;;;1.95;1.10;;;21.50;68.30;;;;;;5025524;28;20083;-42
2021/08/06 05:53:24;;;;;;;0.90;0.70;;;21.40;68.30;;;;;;5022374;28;20143;-42
2021/08/06 05:55:49;;;;;;;1.20;0.95;;;21.40;68.40;;;;;;5026762;28;20075;-42
2021/08/06 05:58:15;;;;;;;1.67;1.08;;;21.40;69.20;;;;;;5006086;28;20083;-44
2021/08/06 06:00:40;;;;;;;1.92;1.02;;;21.40;68.40;;;;;;5024059;28;20045;-41
2021/08/06 06:03:06;;;;;;;1.40;1.05;;;21.40;68.50;;;;;;5025718;28;20551;-42
2021/08/06 06:05:31;;;;;;;1.20;0.95;;;21.40;68.60;;;;;;5026490;28;20044;-42
2021/08/06 06:07:57;;;;;;;1.65;0.90;;;21.40;68.50;;;;;;5028728;28;20105;-37
2021/08/06 06:10:22;;;;;;;1.33;0.73;;;21.40;68.50;;;;;;5026327;28;20034;-43
2021/08/06 06:12:48;;;;;;;2.05;0.93;;;21.40;68.50;;;;;;5033475;28;20037;-42
2021/08/06 06:15:14;;;;;;;2.33;1.02;;;21.40;68.60;;;;;;5047263;28;20493;-40
2021/08/06 06:17:40;;;;;;;3.55;1.10;;;21.40;68.60;;;;;;4652354;28;9999870;-39
2021/08/06 06:20:06;;;;;;;1.60;0.98;;;21.50;68.20;;;;;;5018575;28;20029;-36
2021/08/06 06:22:31;;;;;;;2.13;0.90;;;21.50;68.10;;;;;;5011980;28;20022;-42
2021/08/06 06:24:57;;;;;;;1.27;1.05;;;21.50;68.00;;;;;;4996599;28;20037;-41
2021/08/06 06:27:22;;;;;;;1.05;1.00;;;21.50;68.20;;;;;;5011639;28;20018;-37
2021/08/06 06:29:48;;;;;;;1.90;1.13;;;21.50;68.20;;;;;;5017390;28;20104;-42
2021/08/06 06:32:14;;;;;;;0.93;0.70;;;21.50;68.40;;;;;;5019189;28;20026;-42
2021/08/06 06:34:39;;;;;;;2.47;0.90;;;21.50;68.20;;;;;;5016375;28;20408;-41
2021/08/06 06:37:05;;;;;;;1.45;0.90;;;21.60;68.10;;;;;;5010007;28;20037;-37
2021/08/06 06:39:30;;;;;;;3.42;0.93;;;21.50;68.40;;;;;;5021609;28;20040;-39
2021/08/06 06:41:56;;;;;;;1.60;0.90;;;21.50;68.50;;;;;;5010872;28;20021;-31
2021/08/06 06:44:21;;;;;;;2.13;0.98;;;21.50;68.60;;;;;;5015327;28;20137;-37
2021/08/06 06:46:47;;;;;;;1.10;1.00;;;21.50;68.80;;;;;;5020108;28;20728;-37
2021/08/06 06:49:13;;;;;;;1.00;0.90;;;21.50;68.90;;;;;;5013613;28;20103;-36
2021/08/06 06:51:38;;;;;;;1.85;0.82;;;21.50;68.70;;;;;;5013033;28;20022;-35
2021/08/06 06:54:04;;;;;;;1.00;0.90;;;21.50;69.50;;;;;;5018588;28;20038;-38
2021/08/06 06:56:29;;;;;;;2.00;1.27;;;21.50;68.70;;;;;;5010448;28;20029;-30
2021/08/06 06:58:55;;;;;;;1.63;1.40;;;21.60;68.70;;;;;;5019354;28;20065;-44
2021/08/06 07:01:20;;;;;;;1.92;0.90;;;21.60;68.90;;;;;;5027152;28;20526;-42
2021/08/06 07:03:46;;;;;;;3.35;1.40;;;21.50;68.70;;;;;;5010214;28;20038;-43
2021/08/06 07:06:11;;;;;;;1.55;1.17;;;21.50;68.80;;;;;;5010452;28;20161;-42
2021/08/06 07:08:39;;;;;;;2.30;1.20;;;21.50;69.00;;;;;;5011511;28;20030;-42
2021/08/06 07:11:05;;;;;;;2.17;1.33;;;21.50;69.10;;;;;;5014753;28;20685;-43
2021/08/06 07:13:31;;;;;;;1.63;1.15;;;21.50;69.40;;;;;;5026348;28;20049;-42
2021/08/06 07:15:57;;;;;;;1.65;1.25;;;21.50;69.80;;;;;;5007827;28;20014;-40
2021/08/06 07:18:22;;;;;;;1.70;1.23;;;21.50;70.10;;;;;;5011070;28;20036;-42
2021/08/06 07:20:48;;;;;;;2.05;1.13;;;21.40;70.30;;;;;;5005776;28;20565;-40
2021/08/06 07:23:15;;;;;;;1.90;1.20;;;21.40;71.10;;;;;;5016263;28;20040;-42
2021/08/06 07:25:40;;;;;;;2.15;1.38;;;21.40;70.70;;;;;;5024820;28;20056;-36
2021/08/06 07:28:06;;;;;;;1.13;1.00;;;21.40;71.70;;;;;;5023792;28;20060;-35
2021/08/06 07:30:31;;;;;;;1.90;1.08;;;21.50;71.30;;;;;;5012055;28;20096;-42
2021/08/06 07:32:57;;;;;;;1.50;1.23;;;21.50;71.20;;;;;;5018994;28;20034;-44
2021/08/06 07:35:24;;;;;;;3.25;1.08;;;21.50;71.50;;;;;;5015578;28;20117;-41
2021/08/06 07:37:49;;;;;;;2.30;1.00;;;21.50;72.00;;;;;;5016454;28;20026;-42
2021/08/06 07:40:16;;;;;;;1.60;1.08;;;21.50;72.20;;;;;;5027565;28;20103;-44
2021/08/06 07:42:41;;;;;;;1.65;1.10;;;21.40;72.10;;;;;;5011899;28;20057;-44
2021/08/06 07:45:07;;;;;;;1.80;1.05;;;21.40;72.30;;;;;;4998505;28;20527;-44
2021/08/06 07:47:33;;;;;;;2.08;1.05;;;21.40;72.50;;;;;;4992954;28;20021;-46
2021/08/06 07:49:59;;;;;;;2.30;1.17;;;21.40;71.90;;;;;;5016555;28;20554;-46
2021/08/06 07:52:24;;;;;;;1.65;1.00;;;21.50;72.90;;;;;;5019781;28;20428;-43
2021/08/06 07:54:50;;;;;;;1.52;1.08;;;21.60;72.50;;;;;;5020040;28;20040;-43
2021/08/06 07:57:15;;;;;;;1.33;0.73;;;21.60;72.10;;;;;;5019631;28;20419;-37
2021/08/06 07:59:41;;;;;;;1.42;0.90;;;21.80;71.80;;;;;;5019612;28;20029;-44
2021/08/06 08:02:07;;;;;;;2.30;0.90;;;21.80;71.30;;;;;;5021533;28;20034;-44
2021/08/06 08:04:33;;;;;;;1.13;0.80;;;21.80;71.70;;;;;;5020429;28;20026;-42
2021/08/06 08:06:59;;;;;;;1.10;1.00;;;21.80;70.80;;;;;;5021070;28;20142;-41
2021/08/06 08:09:24;;;;;;;2.13;1.00;;;21.90;71.00;;;;;;5013817;28;20512;-47
2021/08/06 08:11:50;;;;;;;1.20;0.95;;;21.90;71.70;;;;;;5024314;28;20065;-42
2021/08/06 08:14:15;;;;;;;1.45;0.90;;;22.00;71.90;;;;;;5016314;28;20057;-43
2021/08/06 08:16:41;;;;;;;1.52;1.00;;;21.90;72.00;;;;;;5009923;28;20022;-45
2021/08/06 08:19:06;;;;;;;1.73;1.10;;;21.90;71.10;;;;;;5015194;28;20037;-39
2021/08/06 08:21:32;;;;;;;1.30;0.93;;;21.90;71.80;;;;;;5010188;28;20544;-33
2021/08/06 08:23:58;;;;;;;1.67;1.00;;;21.90;72.30;;;;;;5011117;28;20590;-38
2021/08/06 08:26:24;;;;;;;1.50;1.00;;;22.00;72.10;;;;;;5013814;28;20033;-40
2021/08/06 08:28:49;;;;;;;1.83;1.20;;;21.90;71.90;;;;;;5017162;28;20029;-41
2021/08/06 08:31:17;;;;;;;2.78;1.00;;;21.90;71.50;;;;;;5016003;28;20026;-43
2021/08/06 08:33:43;;;;;;;1.30;1.10;;;22.00;71.10;;;;;;5008598;28;20046;-41
2021/08/06 08:36:08;;;;;;;0.88;0.80;;;21.90;72.30;;;;;;5020809;28;20440;-32
2021/08/06 08:38:34;;;;;;;0.88;0.60;;;22.10;71.80;;;;;;5015300;28;20041;-41
2021/08/06 08:40:59;;;;;;;2.67;1.02;;;22.00;71.70;;;;;;5021040;28;20033;-41
2021/08/06 08:43:25;;;;;;;0.93;0.73;;;22.00;71.10;;;;;;5014656;28;20068;-47
2021/08/06 08:45:51;;;;;;;1.25;0.82;;;22.00;71.00;;;;;;5014544;28;20076;-42
2021/08/06 08:48:19;;;;;;;1.00;0.75;;;21.90;71.00;;;;;;4990554;28;20103;-42
2021/08/06 08:50:45;;;;;;;1.08;0.88;;;22.00;71.40;;;;;;5015795;28;20116;-42
2021/08/06 08:53:10;;;;;;;0.85;0.80;;;22.00;70.50;;;;;;5020640;28;20116;-33
2021/08/06 08:55:39;;;;;;;1.00;0.68;;;22.00;70.30;;;;;;5019234;28;20076;-44
